Time;durP1;ratioP1;P1;durP2;ratioP2;P2;SDS_P1;SDS_P2;PMS_P1;PMS_P2;Temp;Humidity;BMP_temperature;BMP_pressure;BME280_temperature;BME280_humidity;BME280_pressure;Samples;Min_cycle;Max_cycle;Signal;HPM_P1;HPM_P2
2022/12/16 00:01:54;;;;;;;47.93;21.12;;;;;;;3.48;78.88;98461.05;4160448;83;43789;-82
2022/12/16 00:07:55;;;;;;;53.50;23.22;;;;;;;3.07;78.71;98457.41;4171822;83;28517;-82
2022/12/16 00:13:56;;;;;;;55.80;23.70;;;;;;;3.53;78.46;98449.81;4147241;83;44065;-82
2022/12/16 00:19:57;;;;;;;59.03;24.72;;;;;;;3.55;81.04;98453.92;4181642;82;44143;-81
2022/12/16 00:25:59;;;;;;;56.00;24.02;;;;;;;3.34;82.18;98462.33;4167492;83;44109;-81
2022/12/16 00:32:01;;;;;;;60.00;25.92;;;;;;;2.88;83.87;98471.70;4170840;83;28561;-81
2022/12/16 00:38:02;;;;;;;57.15;25.02;;;;;;;3.17;86.80;98449.90;4172118;83;28494;-80
2022/12/16 00:44:04;;;;;;;54.90;22.82;;;;;;;3.32;85.05;98435.64;4179039;83;28518;-80
2022/12/16 00:50:06;;;;;;;59.27;26.87;;;;;;;3.26;84.36;98444.42;4177989;83;28548;-81
2022/12/16 00:56:09;;;;;;;55.98;25.92;;;;;;;3.57;84.06;98437.25;4157702;83;28539;-80
2022/12/16 01:02:12;;;;;;;61.20;25.82;;;;;;;3.93;79.57;98435.81;4159889;83;28557;-81
2022/12/16 01:08:13;;;;;;;60.15;25.12;;;;;;;3.14;84.60;98447.64;4170845;83;28525;-81
2022/12/16 01:14:14;;;;;;;59.67;26.35;;;;;;;3.25;85.48;98432.16;4164773;83;28537;-80
2022/12/16 01:20:15;;;;;;;60.08;25.20;;;;;;;3.56;86.10;98402.39;4199408;82;28608;-81
2022/12/16 01:26:17;;;;;;;54.35;24.30;;;;;;;3.68;83.86;98393.33;4175070;82;44072;-80
2022/12/16 01:32:19;;;;;;;53.70;24.75;;;;;;;3.48;83.80;98403.41;4174945;83;28530;-80
2022/12/16 01:38:20;;;;;;;63.55;27.80;;;;;;;3.28;85.96;98385.25;4180887;83;43430;-81
2022/12/16 01:44:24;;;;;;;60.45;25.95;;;;;;;3.15;88.65;98378.05;4170867;83;42788;-80
2022/12/16 01:50:25;;;;;;;54.33;24.70;;;;;;;2.88;90.34;98364.69;4165448;83;28520;-81
2022/12/16 01:56:29;;;;;;;59.35;26.05;;;;;;;3.35;88.69;98354.22;4173932;83;28514;-81
2022/12/16 02:02:30;;;;;;;55.35;23.95;;;;;;;2.95;90.34;98354.89;4171257;83;28537;-81
2022/12/16 02:08:32;;;;;;;58.63;24.77;;;;;;;2.73;91.01;98339.08;4171951;83;44108;-81
2022/12/16 02:14:42;;;;;;;59.83;24.85;;;;;;;2.79;89.63;98335.64;4170094;83;28480;-81
2022/12/16 02:21:14;;;;;;;55.30;24.75;;;;;;;3.34;89.41;98340.63;4185692;83;28495;-81
2022/12/16 02:27:34;;;;;;;55.25;24.07;;;;;;;3.80;83.90;98329.73;4155748;83;44100;-79
2022/12/16 02:33:57;;;;;;;59.90;24.90;;;;;;;2.95;88.62;98336.30;4170738;83;43513;-79
2022/12/16 02:40:00;;;;;;;59.85;25.68;;;;;;;2.98;91.34;98331.11;4170840;83;42460;-79
2022/12/16 02:46:03;;;;;;;58.98;24.72;;;;;;;2.77;95.38;98316.94;4169925;83;28565;-80
2022/12/16 02:52:04;;;;;;;51.73;24.05;;;;;;;2.66;97.10;98298.44;4187000;83;44135;-80
2022/12/16 02:58:23;;;;;;;57.15;25.27;;;;;;;2.63;100.00;98275.75;4176774;82;28589;-80
2022/12/16 03:04:33;;;;;;;54.03;23.80;;;;;;;2.75;100.00;98266.69;4128773;83;44065;-83
2022/12/16 03:10:41;;;;;;;50.60;22.87;;;;;;;2.61;100.00;98262.36;4155960;83;43994;-79
2022/12/16 03:16:43;;;;;;;54.70;23.30;;;;;;;2.99;100.00;98259.22;4152651;83;44265;-79
2022/12/16 03:22:47;;;;;;;52.73;22.77;;;;;;;2.64;100.00;98260.13;4168259;83;44103;-78
2022/12/16 03:28:55;;;;;;;52.88;22.93;;;;;;;2.84;100.00;98261.20;4157132;83;44027;-78
2022/12/16 03:35:29;;;;;;;55.55;24.47;;;;;;;2.78;100.00;98259.67;4149682;83;28466;-78
2022/12/16 03:41:31;;;;;;;43.98;21.97;;;;;;;2.46;100.00;98235.97;4156244;83;28541;-77
2022/12/16 03:47:33;;;;;;;49.83;22.30;;;;;;;3.03;100.00;98213.96;4172061;83;28584;-78
2022/12/16 03:53:34;;;;;;;50.05;22.65;;;;;;;2.65;100.00;98207.85;4160671;83;44492;-78
2022/12/16 03:59:35;;;;;;;46.50;22.07;;;;;;;3.06;100.00;98194.16;4157714;83;43734;-78
2022/12/16 04:05:36;;;;;;;55.65;25.17;;;;;;;2.96;100.00;98164.00;4119757;86;28616;-78
2022/12/16 04:24:18;;;;;;;49.40;21.20;;;;;;;3.47;100.00;98129.35;4055244;85;44468;-77
2022/12/16 04:30:20;;;;;;;47.85;21.02;;;;;;;3.06;100.00;98126.43;4060154;85;43741;-77
